Time;durP1;ratioP1;P1;durP2;ratioP2;P2;SDS_P1;SDS_P2;PMS_P1;PMS_P2;Temp;Humidity;BMP_temperature;BMP_pressure;BME280_temperature;BME280_humidity;BME280_pressure;Samples;Min_cycle;Max_cycle;Signal;HPM_P1;HPM_P2
2022/07/09 00:02:18;;;;;;;3.93;3.77;;;;;;;22.23;89.69;99174.50;5054764;28;20235;-73
2022/07/09 00:04:46;;;;;;;3.67;3.47;;;;;;;21.86;91.47;99163.31;5054926;28;20266;-73
2022/07/09 00:07:13;;;;;;;4.20;3.90;;;;;;;21.55;93.56;99167.16;5055545;28;20193;-73
2022/07/09 00:09:40;;;;;;;4.57;4.17;;;;;;;21.48;95.69;99157.75;5054014;28;20196;-73
2022/07/09 00:12:07;;;;;;;5.30;4.90;;;;;;;21.45;96.51;99156.41;5054598;28;20200;-73
2022/07/09 00:14:34;;;;;;;5.30;4.90;;;;;;;21.46;96.55;99160.72;5054829;28;20628;-73
2022/07/09 00:17:00;;;;;;;5.50;5.13;;;;;;;21.32;98.55;99148.88;5054211;28;20196;-73
2022/07/09 00:19:27;;;;;;;5.10;4.70;;;;;;;21.20;100.00;99153.75;5054512;28;20273;-73
2022/07/09 00:21:55;;;;;;;5.60;5.30;;;;;;;21.06;100.00;99158.06;5054312;28;20593;-74
2022/07/09 00:24:22;;;;;;;5.70;5.40;;;;;;;20.81;100.00;99147.25;5053925;28;20556;-73
2022/07/09 00:26:49;;;;;;;6.50;6.10;;;;;;;20.51;100.00;99142.66;5054006;28;20201;-73
2022/07/09 00:29:15;;;;;;;6.63;5.70;;;;;;;20.35;100.00;99138.31;5053998;28;20251;-73
2022/07/09 00:31:42;;;;;;;6.20;5.90;;;;;;;20.44;100.00;99152.09;5054299;28;20250;-73
2022/07/09 00:34:09;;;;;;;6.07;5.57;;;;;;;20.70;100.00;99156.41;5053920;28;20634;-73
2022/07/09 00:36:35;;;;;;;6.47;5.97;;;;;;;20.73;100.00;99155.06;5054159;28;20196;-74
2022/07/09 00:39:04;;;;;;;5.97;5.67;;;;;;;20.72;100.00;99143.47;5053694;28;20629;-73
2022/07/09 00:41:31;;;;;;;6.93;6.33;;;;;;;20.76;100.00;99144.56;5054420;28;20236;-73
2022/07/09 00:43:57;;;;;;;5.80;5.43;;;;;;;20.62;100.00;99138.06;5054002;28;20192;-73
2022/07/09 00:46:24;;;;;;;6.53;5.80;;;;;;;20.45;100.00;99141.03;5054214;28;20613;-73
2022/07/09 00:48:51;;;;;;;6.33;6.03;;;;;;;20.53;100.00;99145.09;5053883;28;20547;-73
2022/07/09 00:51:18;;;;;;;5.77;5.47;;;;;;;20.52;100.00;99135.38;5053604;28;20669;-73
2022/07/09 00:53:46;;;;;;;6.10;5.67;;;;;;;20.50;100.00;99137.53;5053474;28;20726;-73
2022/07/09 00:56:15;;;;;;;6.13;5.73;;;;;;;20.60;100.00;99129.44;5053467;28;20197;-73
2022/07/09 00:58:43;;;;;;;9.47;5.80;;;;;;;20.54;100.00;99138.59;5053441;28;20723;-73
2022/07/09 01:01:10;;;;;;;6.07;5.67;;;;;;;20.47;100.00;99124.59;5053637;28;20224;-73
2022/07/09 01:03:36;;;;;;;6.27;5.97;;;;;;;20.24;100.00;99127.78;5053570;28;20664;-73
2022/07/09 01:06:03;;;;;;;6.07;5.63;;;;;;;20.27;100.00;99119.16;5053566;28;20197;-73
2022/07/09 01:08:30;;;;;;;5.60;5.10;;;;;;;20.17;100.00;99111.03;5053662;28;20193;-74
2022/07/09 01:10:58;;;;;;;6.00;5.60;;;;;;;20.12;100.00;99108.31;5053221;28;20197;-73
2022/07/09 01:13:26;;;;;;;5.70;5.40;;;;;;;20.08;100.00;99112.59;5053478;28;20208;-73
2022/07/09 01:15:53;;;;;;;5.00;4.60;;;;;;;20.09;100.00;99111.53;5054062;28;20189;-73
2022/07/09 01:18:20;;;;;;;5.10;4.80;;;;;;;20.19;100.00;99109.72;5053328;28;20262;-73
2022/07/09 01:20:48;;;;;;;5.10;4.80;;;;;;;20.18;100.00;99108.06;5052243;28;20193;-73
2022/07/09 01:23:15;;;;;;;5.80;5.30;;;;;;;20.27;100.00;99116.47;5052748;28;20227;-73
2022/07/09 01:25:44;;;;;;;6.10;5.70;;;;;;;20.29;100.00;99115.09;5052882;28;20746;-73
2022/07/09 01:28:11;;;;;;;4.57;4.37;;;;;;;20.43;100.00;99124.28;5052912;28;20545;-73
2022/07/09 01:30:40;;;;;;;5.13;4.73;;;;;;;20.39;100.00;99122.41;5052993;28;20246;-73
2022/07/09 01:33:07;;;;;;;5.27;5.07;;;;;;;20.43;100.00;99118.88;5053636;28;20204;-73
2022/07/09 01:35:34;;;;;;;5.47;5.17;;;;;;;20.52;100.00;99129.97;5053135;28;20579;-73
2022/07/09 01:38:02;;;;;;;5.27;4.87;;;;;;;20.58;100.00;99124.31;5053288;28;20188;-73
2022/07/09 01:40:29;;;;;;;5.67;5.17;;;;;;;20.45;100.00;99126.72;5053065;28;20197;-73
2022/07/09 01:42:56;;;;;;;5.77;5.37;;;;;;;20.44;100.00;99133.19;5053221;28;20700;-74
2022/07/09 01:45:22;;;;;;;5.87;5.20;;;;;;;20.53;100.00;99132.41;5052574;28;20193;-73
2022/07/09 01:47:49;;;;;;;5.93;5.50;;;;;;;20.58;100.00;99131.59;5052687;28;20193;-74
2022/07/09 01:50:16;;;;;;;5.00;4.70;;;;;;;20.81;100.00;99132.94;5052532;28;20196;-73
2022/07/09 01:52:43;;;;;;;5.70;5.30;;;;;;;20.88;100.00;99139.69;5052312;28;20203;-73
2022/07/09 01:55:11;;;;;;;4.90;4.70;;;;;;;20.98;99.81;99138.94;5051942;28;20626;-73
2022/07/09 01:57:38;;;;;;;5.30;4.87;;;;;;;20.91;99.41;99139.19;5052176;28;20196;-75
2022/07/09 02:00:07;;;;;;;5.60;5.20;;;;;;;21.03;99.15;99136.22;5052056;28;20727;-74
2022/07/09 02:02:34;;;;;;;5.00;4.70;;;;;;;21.15;98.03;99139.44;5052518;28;20228;-73
2022/07/09 02:05:01;;;;;;;5.30;4.60;;;;;;;21.18;97.74;99139.69;5052477;28;20200;-73
2022/07/09 02:07:28;;;;;;;5.07;4.77;;;;;;;21.17;97.23;99121.88;5052211;28;20196;-73
2022/07/09 02:09:55;;;;;;;5.00;4.60;;;;;;;21.31;96.94;99136.41;5052707;28;20193;-73
2022/07/09 02:12:23;;;;;;;4.60;4.40;;;;;;;21.46;96.99;99141.78;5052048;28;20739;-73
2022/07/09 02:14:50;;;;;;;5.00;4.50;;;;;;;21.44;96.06;99141.25;5052383;28;20196;-73
2022/07/09 02:17:17;;;;;;;5.43;4.87;;;;;;;21.36;96.61;99133.69;5051742;28;20292;-73
2022/07/09 02:19:44;;;;;;;5.13;4.83;;;;;;;21.22;97.89;99134.53;5052426;28;20196;-73
2022/07/09 02:22:10;;;;;;;5.10;4.83;;;;;;;21.17;97.58;99127.28;5053002;28;20224;-73
2022/07/09 02:24:37;;;;;;;4.57;4.37;;;;;;;21.25;97.19;99134.00;5052168;28;20277;-73
2022/07/09 02:27:04;;;;;;;4.80;4.50;;;;;;;21.20;97.18;99126.72;5051936;28;20656;-73
2022/07/09 02:29:32;;;;;;;6.57;4.57;;;;;;;21.24;96.97;99127.81;5053384;28;20282;-73
2022/07/09 02:31:59;;;;;;;6.07;5.00;;;;;;;21.26;96.59;99125.63;5051856;28;20668;-73
2022/07/09 02:34:26;;;;;;;4.90;4.50;;;;;;;21.32;96.49;99129.94;5051853;28;20246;-73
2022/07/09 02:36:53;;;;;;;5.53;4.90;;;;;;;21.11;98.12;99122.94;5051787;28;20256;-73
2022/07/09 02:39:20;;;;;;;5.07;4.87;;;;;;;21.02;98.54;99131.91;5051923;28;20606;-73
2022/07/09 02:41:46;;;;;;;5.83;5.20;;;;;;;21.07;98.19;99131.88;5051990;28;20232;-73
2022/07/09 02:44:13;;;;;;;5.30;5.00;;;;;;;21.03;97.97;99137.00;5051766;28;20672;-73
2022/07/09 02:46:41;;;;;;;4.97;4.67;;;;;;;21.01;97.96;99128.38;5052032;28;20656;-73
2022/07/09 02:49:08;;;;;;;5.10;4.77;;;;;;;21.03;98.57;99128.09;5052029;28;20275;-73
2022/07/09 02:51:35;;;;;;;4.73;4.53;;;;;;;20.93;97.46;99126.22;5051662;28;20200;-73
2022/07/09 02:54:02;;;;;;;4.80;4.50;;;;;;;20.90;97.67;99131.34;5051664;28;20192;-73
2022/07/09 02:56:28;;;;;;;4.37;4.07;;;;;;;20.67;98.32;99127.28;5051958;28;20197;-73
2022/07/09 02:58:55;;;;;;;4.70;4.50;;;;;;;20.74;98.17;99117.00;5052184;28;20270;-73
2022/07/09 03:01:22;;;;;;;4.70;4.40;;;;;;;20.63;98.55;99117.28;5052027;28;20254;-73
2022/07/09 03:03:50;;;;;;;5.20;4.63;;;;;;;20.53;98.71;99118.09;5052393;28;20197;-73
2022/07/09 03:06:17;;;;;;;4.93;4.57;;;;;;;20.43;99.43;99120.81;5051557;28;20192;-73
2022/07/09 03:08:44;;;;;;;4.47;4.17;;;;;;;20.28;99.49;99097.31;5052617;28;20196;-73
2022/07/09 03:11:11;;;;;;;4.90;4.40;;;;;;;20.30;99.93;99105.13;5051577;28;20197;-73
2022/07/09 03:13:37;;;;;;;4.67;4.47;;;;;;;20.28;100.00;99112.69;5052141;28;20188;-73
2022/07/09 03:16:06;;;;;;;4.97;4.57;;;;;;;20.43;99.90;99107.31;5051866;28;20192;-73
2022/07/09 03:18:33;;;;;;;4.90;4.23;;;;;;;20.63;99.73;99107.31;5052242;28;20293;-73
2022/07/09 03:21:01;;;;;;;5.07;4.80;;;;;;;20.72;99.08;99108.38;5051757;28;20251;-73
2022/07/09 03:23:28;;;;;;;4.00;3.80;;;;;;;20.94;97.77;99111.63;5051791;28;20221;-73
2022/07/09 03:25:55;;;;;;;5.10;4.17;;;;;;;21.12;96.25;99112.97;5051091;28;20725;-73
2022/07/09 03:28:21;;;;;;;4.00;3.80;;;;;;;21.07;94.68;99108.38;5051372;28;20196;-73
2022/07/09 03:30:48;;;;;;;6.47;4.20;;;;;;;21.17;94.70;99113.75;5051429;28;20192;-73
2022/07/09 03:33:15;;;;;;;4.17;3.97;;;;;;;21.24;93.38;99117.00;5051596;28;20197;-73
2022/07/09 03:35:41;;;;;;;4.73;3.77;;;;;;;21.30;92.53;99115.88;5051252;28;20200;-73
2022/07/09 03:38:09;;;;;;;3.77;3.57;;;;;;;21.37;92.31;99116.41;5051582;28;20278;-73
2022/07/09 03:40:36;;;;;;;4.20;3.80;;;;;;;21.56;91.57;99124.75;5051007;28;20669;-73
2022/07/09 03:43:03;;;;;;;3.77;3.47;;;;;;;21.73;91.12;99120.66;5052026;28;20232;-73
2022/07/09 03:45:30;;;;;;;4.27;3.97;;;;;;;21.96;89.16;99119.97;5054584;28;20195;-73
2022/07/09 03:47:56;;;;;;;3.67;3.43;;;;;;;22.23;88.25;99125.78;5055107;28;20387;-73
2022/07/09 03:50:23;;;;;;;3.80;3.60;;;;;;;22.40;86.96;99125.41;5055295;28;20197;-73
2022/07/09 03:52:50;;;;;;;3.97;3.53;;;;;;;22.43;86.20;99122.13;5055278;28;20266;-73
2022/07/09 03:55:18;;;;;;;3.40;3.10;;;;;;;22.38;85.32;99117.56;5053470;28;20193;-73
2022/07/09 03:57:45;;;;;;;3.20;3.10;;;;;;;22.53;84.13;99125.59;5055708;28;20275;-73
2022/07/09 04:00:13;;;;;;;3.67;3.50;;;;;;;22.48;83.38;99128.34;5055678;28;20283;-73
2022/07/09 04:02:40;;;;;;;3.53;3.33;;;;;;;22.53;83.59;99138.31;5054245;28;20703;-73
2022/07/09 04:05:08;;;;;;;4.90;3.27;;;;;;;22.46;83.82;99137.81;5054735;28;20211;-73
2022/07/09 04:07:35;;;;;;;3.27;3.00;;;;;;;22.44;83.06;99138.09;5054451;28;20193;-73
2022/07/09 04:10:02;;;;;;;2.90;2.77;;;;;;;22.68;83.05;99133.63;5054937;28;20611;-73
2022/07/09 04:12:30;;;;;;;3.10;2.90;;;;;;;22.86;82.06;99135.63;5054617;28;20266;-72
2022/07/09 04:14:57;;;;;;;3.43;3.10;;;;;;;23.17;80.84;99141.59;5054829;28;20197;-72
2022/07/09 04:17:23;;;;;;;3.07;2.97;;;;;;;23.38;79.98;99143.00;5054224;28;20616;-72
2022/07/09 04:19:50;;;;;;;3.27;2.97;;;;;;;23.35;79.53;99149.81;5054215;28;20198;-72
2022/07/09 04:22:17;;;;;;;3.63;3.43;;;;;;;23.50;79.20;99152.38;5054061;28;20594;-72
2022/07/09 04:24:43;;;;;;;3.20;3.00;;;;;;;23.89;77.73;99147.56;5054321;28;20251;-72
2022/07/09 04:27:10;;;;;;;3.17;2.97;;;;;;;24.01;76.12;99147.97;5053896;28;20669;-72
2022/07/09 04:29:38;;;;;;;2.80;2.60;;;;;;;24.19;75.23;99158.06;5053999;28;20198;-72
2022/07/09 04:32:06;;;;;;;2.93;2.70;;;;;;;24.32;75.99;99151.91;5054639;28;20251;-72
2022/07/09 04:34:34;;;;;;;2.93;2.73;;;;;;;24.37;75.08;99151.84;5053443;28;20197;-72
2022/07/09 04:37:00;;;;;;;4.40;3.10;;;;;;;24.21;74.53;99157.75;5053814;28;20203;-72
2022/07/09 04:39:27;;;;;;;4.37;2.70;;;;;;;23.97;74.90;99152.38;5053689;28;20195;-72
2022/07/09 04:41:54;;;;;;;3.23;3.10;;;;;;;23.70;76.49;99152.16;5052785;28;20238;-72
2022/07/09 04:44:20;;;;;;;3.50;3.07;;;;;;;23.79;76.74;99145.00;5053968;28;20260;-72
2022/07/09 04:46:49;;;;;;;3.53;3.23;;;;;;;23.57;77.88;99152.81;5054603;28;20195;-72
2022/07/09 04:49:15;;;;;;;3.67;3.13;;;;;;;23.71;77.06;99155.66;5053466;28;20195;-72
2022/07/09 04:51:42;;;;;;;2.90;2.73;;;;;;;23.67;77.48;99150.00;5053846;28;20612;-72
2022/07/09 04:54:09;;;;;;;2.87;2.67;;;;;;;23.50;77.86;99154.28;5053678;28;20194;-73
2022/07/09 04:56:35;;;;;;;2.90;2.63;;;;;;;23.40;78.35;99147.06;5052411;28;20206;-72
2022/07/09 04:59:02;;;;;;;4.57;3.40;;;;;;;23.24;78.61;99140.16;5054264;28;20193;-72
2022/07/09 05:01:29;;;;;;;3.27;2.97;;;;;;;23.27;78.17;99152.38;5053439;28;20236;-73
2022/07/09 05:03:58;;;;;;;3.33;2.97;;;;;;;23.19;78.31;99150.25;5053143;28;20701;-72
2022/07/09 05:06:25;;;;;;;2.40;2.30;;;;;;;23.19;78.66;99148.31;5053158;28;20192;-72
2022/07/09 05:08:52;;;;;;;2.73;2.63;;;;;;;23.16;78.17;99151.59;5053130;28;20194;-73
2022/07/09 05:11:19;;;;;;;3.00;2.70;;;;;;;23.09;78.66;99145.72;5053008;28;20688;-73
2022/07/09 05:13:46;;;;;;;2.60;2.50;;;;;;;23.12;78.70;99150.56;5053339;28;20250;-73
2022/07/09 05:16:13;;;;;;;3.03;2.83;;;;;;;23.16;78.84;99150.81;5053224;28;20193;-74
2022/07/09 05:18:40;;;;;;;3.10;2.80;;;;;;;23.10;78.82;99150.03;5052946;28;20260;-73
2022/07/09 05:21:08;;;;;;;2.87;2.67;;;;;;;23.11;79.11;99157.06;5053329;28;20797;-73
2022/07/09 05:23:35;;;;;;;3.43;2.77;;;;;;;22.83;79.32;99157.84;5053273;28;20220;-73
2022/07/09 05:26:02;;;;;;;3.17;2.97;;;;;;;22.64;80.30;99148.81;5052680;28;20271;-73
2022/07/09 05:28:29;;;;;;;5.53;2.97;;;;;;;22.84;79.74;99150.56;5052853;28;20680;-72
2022/07/09 05:30:55;;;;;;;3.10;2.80;;;;;;;22.82;79.31;99148.13;5052742;28;20665;-73
2022/07/09 05:33:22;;;;;;;2.67;2.47;;;;;;;22.79;79.57;99159.50;5052580;28;20227;-73
2022/07/09 05:35:49;;;;;;;2.80;2.60;;;;;;;22.94;79.44;99153.97;5053040;28;20254;-73
2022/07/09 05:38:17;;;;;;;4.90;2.87;;;;;;;23.18;78.49;99154.84;5053426;28;20201;-73
2022/07/09 05:40:44;;;;;;;6.77;3.23;;;;;;;23.32;78.30;99161.22;5052621;28;20657;-73
2022/07/09 05:43:10;;;;;;;2.77;2.67;;;;;;;23.32;77.87;99149.59;5053421;28;20303;-72
2022/07/09 05:45:37;;;;;;;3.30;3.20;;;;;;;23.18;77.84;99154.84;5052386;28;20251;-72
2022/07/09 05:48:04;;;;;;;3.63;2.60;;;;;;;23.02;77.92;99158.78;5052587;28;20203;-73
2022/07/09 05:50:31;;;;;;;4.33;2.83;;;;;;;23.07;77.73;99158.72;5052320;28;20247;-72
2022/07/09 05:52:58;;;;;;;3.80;3.00;;;;;;;23.00;78.23;99152.84;5052160;28;20258;-73
2022/07/09 05:55:27;;;;;;;3.50;2.67;;;;;;;23.02;78.46;99147.13;5052459;28;20546;-72
2022/07/09 05:57:53;;;;;;;3.20;3.00;;;;;;;23.17;79.05;99153.25;5052036;28;20200;-73
2022/07/09 06:00:20;;;;;;;3.93;2.57;;;;;;;23.26;79.04;99156.97;5052428;28;20648;-72
2022/07/09 06:02:47;;;;;;;3.77;3.47;;;;;;;23.02;78.46;99150.66;5048923;28;20708;-73
2022/07/09 06:05:14;;;;;;;5.40;3.50;;;;;;;23.03;78.67;99149.56;5052338;28;20253;-73
2022/07/09 06:07:44;;;;;;;3.80;3.60;;;;;;;23.00;79.37;99147.44;5052060;28;20200;-73
2022/07/09 06:10:13;;;;;;;3.33;3.23;;;;;;;22.98;79.28;99132.53;5052069;28;20186;-72
2022/07/09 06:12:41;;;;;;;4.33;2.90;;;;;;;23.14;78.63;99148.38;5032410;28;20217;-72
2022/07/09 06:15:10;;;;;;;3.37;3.10;;;;;;;23.07;78.97;99149.81;5032193;28;20237;-72
2022/07/09 06:17:36;;;;;;;3.13;3.03;;;;;;;23.14;78.88;99152.97;5032106;28;20256;-73
2022/07/09 06:20:04;;;;;;;3.47;3.13;;;;;;;23.18;78.70;99146.72;5043006;28;20258;-73
2022/07/09 06:22:31;;;;;;;3.57;3.00;;;;;;;23.13;78.32;99141.34;5051811;28;20221;-72
2022/07/09 06:24:58;;;;;;;3.37;3.13;;;;;;;23.16;77.85;99146.19;5051939;28;20193;-72
2022/07/09 06:27:25;;;;;;;3.23;2.93;;;;;;;23.27;77.89;99136.91;5052429;28;20208;-72
2022/07/09 06:29:53;;;;;;;3.53;3.23;;;;;;;23.39;77.15;99150.88;5052449;28;20192;-72
2022/07/09 06:32:19;;;;;;;3.57;3.20;;;;;;;23.54;76.98;99137.16;5051664;28;20204;-72
2022/07/09 06:34:46;;;;;;;2.90;2.70;;;;;;;23.72;75.92;99139.09;5052076;28;20623;-72
2022/07/09 06:37:13;;;;;;;3.73;2.67;;;;;;;23.75;76.30;99132.28;5051500;28;20254;-72
2022/07/09 06:39:46;;;;;;;2.77;2.60;;;;;;;23.72;75.78;99125.53;5051548;28;20201;-72
2022/07/09 06:42:13;;;;;;;8.07;3.03;;;;;;;23.94;75.83;99125.81;5051597;28;20609;-72
2022/07/09 06:44:40;;;;;;;2.67;2.50;;;;;;;24.19;74.83;99127.41;5050997;28;20619;-72
2022/07/09 06:47:09;;;;;;;2.83;2.70;;;;;;;24.28;73.62;99126.44;5051658;28;20278;-72
2022/07/09 06:49:36;;;;;;;3.87;3.57;;;;;;;24.37;74.36;99116.53;5051484;28;20199;-72
2022/07/09 06:52:04;;;;;;;3.40;3.23;;;;;;;24.46;72.57;99127.56;5051703;28;20252;-72
2022/07/09 06:54:30;;;;;;;3.00;2.70;;;;;;;24.60;72.58;99134.69;5051309;28;20198;-71
2022/07/09 06:56:57;;;;;;;3.73;3.00;;;;;;;24.75;72.94;99120.84;5051481;28;20664;-71
2022/07/09 06:59:24;;;;;;;3.20;3.00;;;;;;;24.86;71.42;99122.28;5050867;28;20556;-72
2022/07/09 07:01:51;;;;;;;3.63;2.90;;;;;;;24.82;71.07;99124.00;5051282;28;20204;-73
2022/07/09 07:04:20;;;;;;;3.10;2.97;;;;;;;24.58;72.05;99120.53;5051299;28;20227;-72
2022/07/09 07:06:48;;;;;;;3.50;3.20;;;;;;;24.67;72.07;99124.22;5051664;28;20201;-72
2022/07/09 07:09:16;;;;;;;3.03;2.87;;;;;;;24.40;72.62;99120.56;5051229;28;20203;-72
2022/07/09 07:11:43;;;;;;;3.30;2.97;;;;;;;24.26;72.75;99114.28;5051498;28;20201;-72
2022/07/09 07:14:10;;;;;;;4.00;3.60;;;;;;;24.28;72.17;99121.03;5051705;28;20203;-72
2022/07/09 07:16:36;;;;;;;3.80;3.60;;;;;;;24.38;71.77;99117.34;5051370;28;20258;-73
2022/07/09 07:19:03;;;;;;;3.40;3.10;;;;;;;24.45;72.19;99121.31;5052250;28;20261;-73
2022/07/09 07:21:31;;;;;;;3.87;3.60;;;;;;;24.52;72.14;99127.19;5055326;28;20228;-73
2022/07/09 07:23:58;;;;;;;3.50;3.30;;;;;;;24.55;72.54;99131.22;5054960;28;20227;-71
2022/07/09 07:26:25;;;;;;;3.77;3.23;;;;;;;24.62;72.93;99132.47;5055113;28;20195;-71
2022/07/09 07:28:52;;;;;;;6.40;3.70;;;;;;;24.69;72.80;99122.03;5054692;28;20662;-71
2022/07/09 07:31:18;;;;;;;3.93;3.63;;;;;;;24.69;72.39;99138.34;5055169;28;20269;-72
2022/07/09 07:33:45;;;;;;;3.40;3.10;;;;;;;24.77;72.31;99140.38;5054924;28;20207;-71
2022/07/09 07:36:12;;;;;;;5.53;3.10;;;;;;;24.72;72.62;99143.19;5054995;28;20194;-71
2022/07/09 07:38:40;;;;;;;4.53;3.13;;;;;;;24.82;71.48;99143.00;5054973;28;20191;-71
2022/07/09 07:41:07;;;;;;;3.13;3.03;;;;;;;24.74;72.10;99135.53;5054936;28;20261;-71
2022/07/09 07:43:33;;;;;;;5.50;3.43;;;;;;;24.80;71.81;99134.34;5055088;28;20651;-71
2022/07/09 07:46:00;;;;;;;3.50;3.13;;;;;;;24.95;71.34;99141.47;5054698;28;20595;-70
2022/07/09 07:48:27;;;;;;;4.80;3.33;;;;;;;25.36;70.56;99136.94;5054963;28;20200;-70
2022/07/09 07:50:54;;;;;;;4.67;3.40;;;;;;;25.63;69.00;99138.88;5054714;28;20196;-70
2022/07/09 07:53:21;;;;;;;3.40;3.20;;;;;;;25.74;68.12;99140.25;5054881;28;20204;-70
2022/07/09 07:55:49;;;;;;;6.93;3.47;;;;;;;26.09;67.63;99128.66;5054485;28;20665;-70
2022/07/09 07:58:16;;;;;;;2.90;2.70;;;;;;;26.49;65.60;99144.06;5054275;28;20193;-70
2022/07/09 08:00:43;;;;;;;2.73;2.63;;;;;;;26.98;64.31;99141.28;5054798;28;20192;-70
2022/07/09 08:03:10;;;;;;;3.20;3.10;;;;;;;27.09;63.36;99148.09;5054104;28;20769;-70
2022/07/09 08:05:37;;;;;;;14.77;3.80;;;;;;;27.00;63.00;99142.59;5054155;28;20696;-70
2022/07/09 08:08:04;;;;;;;6.50;3.07;;;;;;;27.17;62.66;99141.88;5054713;28;20201;-70
2022/07/09 08:10:30;;;;;;;5.60;2.90;;;;;;;27.35;61.46;99127.22;5054270;28;20192;-70
2022/07/09 08:12:58;;;;;;;6.30;2.77;;;;;;;27.68;60.57;99144.88;5054349;28;20201;-70
2022/07/09 08:15:25;;;;;;;2.67;2.57;;;;;;;27.70;59.58;99134.44;5054347;28;20201;-69
2022/07/09 08:17:53;;;;;;;3.83;2.73;;;;;;;27.85;58.77;99144.97;5053934;28;20680;-69
2022/07/09 08:20:20;;;;;;;4.50;2.70;;;;;;;28.07;58.50;99142.13;5054122;28;20203;-70
2022/07/09 08:22:46;;;;;;;4.60;2.50;;;;;;;27.90;58.57;99142.09;5053991;28;20201;-70
2022/07/09 08:25:13;;;;;;;5.57;2.70;;;;;;;27.54;59.47;99134.06;5054153;28;20250;-70
2022/07/09 08:27:40;;;;;;;4.27;2.50;;;;;;;27.50;59.57;99118.63;5053822;28;20197;-71
2022/07/09 08:30:09;;;;;;;5.57;2.83;;;;;;;27.57;60.70;99127.19;5053767;28;20254;-71
2022/07/09 08:32:37;;;;;;;4.67;3.00;;;;;;;27.49;60.17;99141.59;5053467;28;20284;-71
2022/07/09 08:35:04;;;;;;;3.20;3.00;;;;;;;27.57;59.70;99146.28;5053561;28;20709;-72
2022/07/09 08:37:31;;;;;;;7.33;3.07;;;;;;;26.90;60.16;99131.94;5053765;28;20204;-71
2022/07/09 08:39:57;;;;;;;3.57;3.27;;;;;;;26.47;60.97;99132.69;5053901;28;20234;-71
2022/07/09 08:42:24;;;;;;;2.80;2.67;;;;;;;26.38;62.12;99131.81;5054232;28;20228;-71
2022/07/09 08:44:51;;;;;;;3.20;3.00;;;;;;;26.29;61.31;99145.34;5053077;28;20712;-71
2022/07/09 08:47:20;;;;;;;9.13;3.40;;;;;;;26.41;61.95;99136.66;5053941;28;20200;-71
2022/07/09 08:49:49;;;;;;;3.37;3.17;;;;;;;26.33;62.40;99123.78;5053078;28;20196;-71
2022/07/09 08:52:17;;;;;;;3.20;3.00;;;;;;;26.60;62.68;99126.41;5053427;28;20330;-71
2022/07/09 08:54:45;;;;;;;4.80;3.13;;;;;;;26.71;62.41;99116.88;5052875;28;20265;-71
2022/07/09 08:57:11;;;;;;;4.13;3.47;;;;;;;26.75;61.51;99132.28;5053294;28;20628;-71
2022/07/09 08:59:38;;;;;;;5.90;3.37;;;;;;;26.78;61.74;99120.78;5053747;28;20246;-71
2022/07/09 09:02:06;;;;;;;4.60;3.30;;;;;;;26.69;62.19;99119.09;5053520;28;20196;-71
2022/07/09 09:04:35;;;;;;;3.13;2.90;;;;;;;26.47;61.94;99124.53;5052939;28;20679;-71
2022/07/09 09:07:13;;;;;;;4.03;2.90;;;;;;;26.58;62.05;99120.47;5053170;28;20620;-72
2022/07/09 09:09:39;;;;;;;3.27;3.00;;;;;;;26.49;61.86;99116.84;5052596;28;20646;-72
2022/07/09 09:12:07;;;;;;;5.73;3.10;;;;;;;26.43;61.53;99123.53;5052889;28;20664;-71
2022/07/09 09:14:33;;;;;;;3.20;3.00;;;;;;;26.64;61.24;99121.97;5052484;28;20204;-71
2022/07/09 09:17:05;;;;;;;5.80;2.40;;;;;;;26.86;60.52;99121.97;5053143;28;20254;-72
2022/07/09 09:19:32;;;;;;;6.90;3.00;;;;;;;26.98;60.14;99114.81;5052852;28;20691;-71
2022/07/09 09:22:00;;;;;;;3.13;3.00;;;;;;;26.95;60.43;99120.09;5052827;28;20667;-71
2022/07/09 09:24:29;;;;;;;5.40;3.23;;;;;;;27.04;60.74;99120.94;5052504;28;20220;-71
2022/07/09 09:26:58;;;;;;;3.43;2.53;;;;;;;26.95;60.51;99125.56;5053071;28;20287;-71
2022/07/09 09:29:25;;;;;;;3.67;2.50;;;;;;;26.81;61.08;99130.25;5052500;28;20283;-72
2022/07/09 09:31:52;;;;;;;3.43;3.13;;;;;;;26.64;60.43;99130.94;5052646;28;20192;-71
2022/07/09 09:34:19;;;;;;;2.93;2.73;;;;;;;26.78;61.08;99120.00;5051832;28;20661;-71
2022/07/09 09:36:47;;;;;;;3.80;3.50;;;;;;;26.67;61.55;99122.16;5052521;28;20238;-71
2022/07/09 09:39:18;;;;;;;5.43;3.47;;;;;;;26.78;61.68;99120.00;5052457;28;20196;-72
2022/07/09 09:41:46;;;;;;;3.03;2.93;;;;;;;26.64;61.65;99113.78;5052448;28;20226;-71
2022/07/09 09:44:15;;;;;;;4.37;3.53;;;;;;;26.67;61.81;99126.78;5052734;28;20278;-71
2022/07/09 09:46:42;;;;;;;3.70;2.87;;;;;;;26.45;61.46;99126.75;5052711;28;20195;-71
2022/07/09 09:49:12;;;;;;;3.10;3.00;;;;;;;26.34;63.00;99122.66;5052545;28;20262;-72
2022/07/09 09:51:47;;;;;;;3.20;2.97;;;;;;;26.37;62.81;99122.84;5052969;28;20201;-71
2022/07/09 09:54:16;;;;;;;3.80;3.37;;;;;;;26.33;62.53;99121.06;5053016;28;20242;-71
2022/07/09 09:56:43;;;;;;;3.50;3.20;;;;;;;26.41;63.29;99117.59;5052267;28;20722;-71
2022/07/09 09:59:11;;;;;;;4.30;3.20;;;;;;;26.51;62.78;99114.63;5052388;28;20250;-71
2022/07/09 10:01:39;;;;;;;3.00;2.90;;;;;;;26.55;63.13;99112.88;5052174;28;20196;-70
2022/07/09 10:04:06;;;;;;;3.33;3.10;;;;;;;26.70;61.31;99123.47;5050571;28;20769;-71
2022/07/09 10:06:34;;;;;;;5.13;3.40;;;;;;;26.71;60.08;99128.56;5052400;28;20200;-71
2022/07/09 10:09:02;;;;;;;3.00;2.57;;;;;;;26.78;59.35;99125.44;5052426;28;20192;-71
2022/07/09 10:11:40;;;;;;;3.80;3.30;;;;;;;26.94;59.66;99126.66;5052157;28;20279;-71
2022/07/09 10:14:08;;;;;;;3.27;3.17;;;;;;;26.83;60.12;99122.59;5052181;28;20271;-71
2022/07/09 10:16:36;;;;;;;3.20;3.00;;;;;;;26.96;59.70;99122.53;5051701;28;20736;-71
2022/07/09 10:19:03;;;;;;;7.30;3.50;;;;;;;27.27;59.16;99122.56;5051579;28;20544;-71
2022/07/09 10:21:35;;;;;;;2.97;2.87;;;;;;;27.34;57.76;99129.16;5051553;28;20669;-71
2022/07/09 10:24:02;;;;;;;3.27;3.07;;;;;;;27.50;57.99;99118.63;5052002;28;20669;-70
2022/07/09 10:26:44;;;;;;;2.97;2.80;;;;;;;27.27;57.12;99128.03;5051781;28;20250;-70
2022/07/09 10:29:22;;;;;;;18.53;4.17;;;;;;;27.34;56.41;99129.16;5052959;28;20195;-70
2022/07/09 10:31:49;;;;;;;4.00;3.00;;;;;;;27.28;57.52;99121.44;5051419;28;20201;-71
2022/07/09 10:34:44;;;;;;;3.33;3.10;;;;;;;27.29;57.95;99115.69;5051372;28;20201;-70
2022/07/09 10:37:12;;;;;;;11.43;3.57;;;;;;;27.21;58.23;99112.91;5051561;28;20200;-71
2022/07/09 10:39:38;;;;;;;3.33;2.90;;;;;;;27.09;57.58;99116.19;5051477;28;20199;-70
2022/07/09 10:42:17;;;;;;;3.10;2.87;;;;;;;27.06;58.04;99113.25;5051639;28;20248;-71
2022/07/09 10:44:45;;;;;;;4.47;3.23;;;;;;;27.01;59.11;99116.13;5051349;28;20208;-71
2022/07/09 10:47:12;;;;;;;5.90;3.47;;;;;;;27.19;57.56;99115.91;5051101;28;20491;-71
2022/07/09 10:49:39;;;;;;;3.40;3.10;;;;;;;27.15;57.66;99119.59;5051067;28;20266;-70
2022/07/09 10:52:07;;;;;;;4.60;3.60;;;;;;;27.01;57.95;99107.94;5050691;28;20193;-71
2022/07/09 10:54:34;;;;;;;3.50;3.30;;;;;;;26.76;59.28;99116.75;5052891;28;20197;-72
2022/07/09 10:57:01;;;;;;;3.30;3.10;;;;;;;26.87;59.07;99108.00;5054834;28;20196;-71
2022/07/09 10:59:30;;;;;;;3.23;3.03;;;;;;;27.00;58.40;99107.16;5055364;28;20196;-71
2022/07/09 11:01:56;;;;;;;4.07;3.80;;;;;;;27.01;59.25;99107.94;5054616;28;20279;-71
2022/07/09 11:04:28;;;;;;;5.40;3.70;;;;;;;26.95;58.17;99109.97;5055134;28;20224;-71
2022/07/09 11:06:54;;;;;;;4.60;3.40;;;;;;;26.87;58.58;99101.78;5055360;28;20227;-71
2022/07/09 11:09:21;;;;;;;3.63;3.33;;;;;;;26.80;58.61;99106.84;5055137;28;20201;-71
2022/07/09 11:11:48;;;;;;;4.43;3.53;;;;;;;26.89;59.18;99094.06;5054827;28;20632;-71
2022/07/09 11:14:15;;;;;;;3.77;3.57;;;;;;;26.76;59.42;99100.41;5054731;28;20299;-71
2022/07/09 11:16:54;;;;;;;4.00;3.70;;;;;;;26.80;59.93;99099.47;5054613;28;20204;-71
2022/07/09 11:19:21;;;;;;;3.77;3.57;;;;;;;26.82;60.08;99099.19;5055133;28;20276;-71
2022/07/09 11:21:48;;;;;;;3.83;3.33;;;;;;;26.82;59.38;99099.19;5055116;28;20230;-71
2022/07/09 11:24:16;;;;;;;3.60;3.20;;;;;;;26.78;59.41;99098.97;5054556;28;20224;-72
2022/07/09 11:26:43;;;;;;;6.27;3.90;;;;;;;26.82;60.36;99091.00;5054680;28;20283;-70
2022/07/09 11:29:10;;;;;;;3.70;3.60;;;;;;;26.80;60.13;99095.94;5055321;28;20196;-70
2022/07/09 11:31:38;;;;;;;4.07;3.77;;;;;;;26.77;60.36;99096.56;5054475;28;20266;-71
2022/07/09 11:34:12;;;;;;;4.53;3.93;;;;;;;26.75;60.72;99087.91;5054263;28;20617;-71